Time;durP1;ratioP1;P1;durP2;ratioP2;P2;SDS_P1;SDS_P2;PMS_P1;PMS_P2;Temp;Humidity;BMP_temperature;BMP_pressure;BME280_temperature;BME280_humidity;BME280_pressure;Samples;Min_cycle;Max_cycle;Signal;HPM_P1;HPM_P2
2022/04/12 00:02:01;;;;;;;5.83;2.87;;;;;9.20;100428.00;;;;10529988;28;20192;-78
2022/04/12 00:07:04;;;;;;;6.13;4.07;;;;;9.10;100442.00;;;;10546961;28;20216;-77
2022/04/12 00:12:06;;;;;;;6.57;3.70;;;;;8.90;100427.00;;;;10562563;28;20188;-78
2022/04/12 00:22:29;;;;;;;5.20;3.03;;;;;8.60;100425.00;;;;10529651;28;20196;-77
2022/04/12 00:27:31;;;;;;;4.13;2.90;;;;;8.60;100406.00;;;;10487309;28;20671;-78
2022/04/12 00:32:33;;;;;;;5.37;2.93;;;;;8.80;100404.00;;;;10537021;28;20231;-78
2022/04/12 00:37:35;;;;;;;5.33;2.83;;;;;9.00;100403.00;;;;10503791;28;20497;-78
2022/04/12 00:42:37;;;;;;;5.87;2.53;;;;;9.10;100392.00;;;;10503285;28;20239;-77
2022/04/12 00:47:40;;;;;;;4.67;2.70;;;;;9.10;100400.00;;;;10509304;28;20212;-77
2022/04/12 00:52:48;;;;;;;4.27;3.00;;;;;9.10;100397.00;;;;10563219;28;20199;-77
2022/04/12 00:57:51;;;;;;;7.80;3.60;;;;;9.10;100392.00;;;;10604033;27;20192;-77
2022/04/12 01:02:53;;;;;;;5.00;2.67;;;;;9.20;100410.00;;;;10586198;27;20647;-77
2022/04/12 01:07:55;;;;;;;3.30;3.00;;;;;9.20;100396.00;;;;10552079;28;20261;-77
2022/04/12 01:12:58;;;;;;;3.77;2.53;;;;;9.20;100391.00;;;;10536400;28;20550;-78
2022/04/12 01:18:00;;;;;;;4.57;2.63;;;;;9.20;100405.00;;;;10534606;28;20192;-78
2022/04/12 01:23:18;;;;;;;3.90;2.53;;;;;9.20;100387.00;;;;10539865;28;20205;-78
2022/04/12 01:28:20;;;;;;;4.00;2.60;;;;;9.10;100394.00;;;;10492801;28;20611;-78
2022/04/12 01:33:22;;;;;;;4.80;2.50;;;;;9.10;100393.00;;;;10525982;28;20189;-77
2022/04/12 01:38:24;;;;;;;4.27;2.80;;;;;9.10;100385.00;;;;10509178;28;20201;-77
2022/04/12 01:43:26;;;;;;;4.63;2.70;;;;;9.00;100397.00;;;;10508647;28;20184;-77
2022/04/12 01:48:28;;;;;;;4.90;2.63;;;;;9.00;100378.00;;;;10522149;28;20254;-78
2022/04/12 01:53:30;;;;;;;3.33;2.60;;;;;8.90;100382.00;;;;10558883;27;20203;-78
2022/04/12 01:58:33;;;;;;;5.37;2.93;;;;;8.80;100376.00;;;;10609086;27;20254;-77
2022/04/12 02:03:35;;;;;;;4.87;2.90;;;;;8.80;100375.00;;;;10555958;28;20200;-77
2022/04/12 02:08:39;;;;;;;6.00;3.07;;;;;8.70;100363.00;;;;10549244;28;20204;-77
2022/04/12 02:13:41;;;;;;;2.87;2.37;;;;;8.70;100353.00;;;;10532005;28;20193;-77
2022/04/12 02:18:43;;;;;;;3.90;2.50;;;;;8.70;100335.00;;;;10549667;28;20271;-78
2022/04/12 02:23:45;;;;;;;3.97;2.73;;;;;8.60;100334.00;;;;10559248;27;20231;-77
2022/04/12 02:28:47;;;;;;;5.60;2.90;;;;;8.60;100332.00;;;;10574083;27;20204;-77
2022/04/12 02:33:49;;;;;;;3.70;2.80;;;;;8.60;100338.00;;;;10604087;27;20712;-78
2022/04/12 02:38:51;;;;;;;4.80;3.07;;;;;8.40;100331.00;;;;10523306;28;20213;-77
2022/04/12 02:43:52;;;;;;;7.30;2.80;;;;;8.30;100331.00;;;;10506450;28;20193;-77
2022/04/12 02:48:54;;;;;;;7.53;3.40;;;;;8.20;100315.00;;;;10506555;28;20217;-78
2022/04/12 02:53:56;;;;;;;5.13;2.93;;;;;8.20;100298.00;;;;10564100;27;20195;-77
2022/04/12 02:58:58;;;;;;;6.67;2.57;;;;;8.00;100277.00;;;;10607636;27;20188;-77
2022/04/12 03:04:00;;;;;;;2.70;2.50;;;;;8.00;100283.00;;;;10590816;27;20195;-77
2022/04/12 03:09:03;;;;;;;4.57;2.83;;;;;8.20;100300.00;;;;10606630;27;20232;-77
2022/04/12 03:14:05;;;;;;;4.20;2.60;;;;;8.30;100321.00;;;;10588948;27;20199;-76
2022/04/12 03:19:07;;;;;;;4.40;2.50;;;;;8.30;100326.00;;;;10556119;27;20212;-77
2022/04/12 03:24:09;;;;;;;3.10;2.77;;;;;8.20;100332.00;;;;10592857;27;20196;-78
2022/04/12 03:29:10;;;;;;;4.13;3.07;;;;;8.10;100344.00;;;;10563538;28;20247;-77
2022/04/12 03:34:12;;;;;;;3.77;3.10;;;;;7.90;100344.00;;;;10588981;27;20191;-77
2022/04/12 03:39:17;;;;;;;5.13;3.30;;;;;7.80;100353.00;;;;10588743;27;20709;-78
2022/04/12 03:44:20;;;;;;;3.77;3.47;;;;;7.70;100359.00;;;;10588481;27;20282;-78
2022/04/12 03:49:22;;;;;;;4.00;2.70;;;;;7.50;100349.00;;;;10567473;27;20236;-77
2022/04/12 03:54:24;;;;;;;5.73;3.57;;;;;7.50;100339.00;;;;10546323;28;20202;-77
2022/04/12 03:59:26;;;;;;;7.03;3.50;;;;;7.50;100336.00;;;;10545458;28;20211;-77
2022/04/12 04:04:28;;;;;;;6.03;3.60;;;;;7.50;100355.00;;;;10546864;28;20192;-78
2022/04/12 04:09:36;;;;;;;7.00;4.03;;;;;7.50;100335.00;;;;10529361;28;20231;-77
2022/04/12 04:14:39;;;;;;;6.97;4.80;;;;;7.50;100332.00;;;;10528570;28;20278;-78
2022/04/12 04:19:41;;;;;;;7.73;4.33;;;;;7.40;100312.00;;;;10529067;28;20212;-78
2022/04/12 04:24:43;;;;;;;5.87;4.13;;;;;7.40;100335.00;;;;10564781;28;20207;-77
2022/04/12 04:29:45;;;;;;;5.87;4.03;;;;;7.30;100338.00;;;;10587571;28;20215;-77
2022/04/12 04:34:47;;;;;;;7.13;4.03;;;;;7.10;100337.00;;;;10574068;27;20198;-76
2022/04/12 04:39:49;;;;;;;8.20;5.67;;;;;6.90;100321.00;;;;10500618;28;20221;-77
2022/04/12 04:44:51;;;;;;;5.80;4.47;;;;;6.80;100321.00;;;;10514184;28;20291;-77
2022/04/12 04:49:53;;;;;;;7.23;3.87;;;;;6.60;100321.00;;;;10535947;28;20223;-78
2022/04/12 04:54:55;;;;;;;8.97;3.93;;;;;6.60;100318.00;;;;10607815;27;20191;-78
2022/04/12 04:59:57;;;;;;;6.80;4.10;;;;;6.70;100332.00;;;;10595264;27;20183;-76
2022/04/12 05:05:01;;;;;;;8.87;4.17;;;;;7.00;100318.00;;;;10561958;27;20191;-77
2022/04/12 05:10:04;;;;;;;4.53;3.80;;;;;7.20;100330.00;;;;10578273;27;20705;-78
2022/04/12 05:15:06;;;;;;;5.07;4.23;;;;;7.30;100325.00;;;;10593826;27;20222;-77
2022/04/12 05:20:09;;;;;;;5.77;3.67;;;;;7.40;100330.00;;;;10594104;27;20236;-78
2022/04/12 05:25:11;;;;;;;4.60;3.30;;;;;7.50;100342.00;;;;10551827;28;20206;-77
2022/04/12 05:30:14;;;;;;;5.57;3.90;;;;;7.60;100338.00;;;;10593780;27;20219;-77
2022/04/12 05:35:16;;;;;;;8.63;3.50;;;;;7.80;100326.00;;;;10576247;27;20191;-78
2022/04/12 05:40:19;;;;;;;10.03;3.87;;;;;7.90;100318.00;;;;10576017;27;20200;-77
2022/04/12 05:45:21;;;;;;;8.63;4.43;;;;;8.00;100320.00;;;;10576311;27;20210;-78
2022/04/12 05:50:26;;;;;;;8.03;3.83;;;;;8.50;100326.00;;;;10559268;27;20215;-77
2022/04/12 05:55:28;;;;;;;6.00;3.83;;;;;9.10;100337.00;;;;10580880;28;20200;-78
2022/04/12 06:00:34;;;;;;;5.63;3.97;;;;;9.50;100345.00;;;;10501685;28;20201;-78
2022/04/12 06:05:36;;;;;;;5.63;3.33;;;;;9.80;100342.00;;;;10506243;28;20193;-76
2022/04/12 06:10:38;;;;;;;5.50;3.50;;;;;10.10;100359.00;;;;10508416;28;20675;-77
2022/04/12 06:15:40;;;;;;;4.90;3.00;;;;;10.50;100355.00;;;;10507537;28;20204;-78
2022/04/12 06:20:43;;;;;;;5.63;3.20;;;;;11.10;100356.00;;;;10493374;28;20720;-78
2022/04/12 06:25:44;;;;;;;4.43;3.00;;;;;11.70;100352.00;;;;10549478;28;20197;-77
2022/04/12 06:30:48;;;;;;;7.30;3.47;;;;;12.40;100357.00;;;;10559996;28;20212;-79
2022/04/12 06:35:50;;;;;;;7.23;3.30;;;;;13.00;100359.00;;;;10541455;28;20197;-77
2022/04/12 06:40:52;;;;;;;3.73;3.27;;;;;13.40;100370.00;;;;10523829;28;20576;-78
2022/04/12 06:45:54;;;;;;;5.30;3.33;;;;;13.80;100369.00;;;;10507063;28;20262;-78
2022/04/12 06:50:56;;;;;;;5.73;2.60;;;;;13.90;100367.00;;;;10566139;28;20226;-78
2022/04/12 06:55:58;;;;;;;3.13;2.70;;;;;14.00;100384.00;;;;10547225;28;20196;-78
2022/04/12 07:01:00;;;;;;;5.20;2.80;;;;;14.30;100383.00;;;;10539507;28;20193;-79
2022/04/12 07:06:09;;;;;;;3.20;2.30;;;;;14.90;100375.00;;;;10508181;28;20203;-79
2022/04/12 07:11:11;;;;;;;4.03;2.30;;;;;15.40;100380.00;;;;10505582;28;20216;-78
2022/04/12 07:16:14;;;;;;;4.53;2.53;;;;;15.70;100383.00;;;;10505772;28;20271;-78
2022/04/12 07:21:21;;;;;;;5.37;2.73;;;;;16.20;100387.00;;;;10505292;28;20189;-78
2022/04/12 07:26:22;;;;;;;3.43;2.20;;;;;16.50;100377.00;;;;10538574;28;20262;-79
2022/04/12 07:31:25;;;;;;;4.57;2.43;;;;;16.70;100372.00;;;;10489783;28;20205;-78
2022/04/12 07:36:27;;;;;;;4.45;2.50;;;;;16.60;100372.00;;;;10522515;28;20213;-79
2022/04/12 07:41:30;;;;;;;5.40;2.70;;;;;16.40;100367.00;;;;10505643;28;20200;-79
2022/04/12 07:46:32;;;;;;;4.43;2.97;;;;;15.70;100369.00;;;;10522153;28;20201;-78
2022/04/12 07:51:34;;;;;;;3.53;2.60;;;;;15.60;100378.00;;;;10570348;27;20215;-79
2022/04/12 07:56:36;;;;;;;4.15;2.90;;;;;16.60;100378.00;;;;10509093;28;20271;-78
2022/04/12 08:01:38;;;;;;;5.82;2.80;;;;;17.50;100380.00;;;;10504308;28;20189;-79
2022/04/12 08:06:40;;;;;;;4.63;2.60;;;;;18.10;100370.00;;;;10488611;28;20670;-78
2022/04/12 08:11:42;;;;;;;8.55;2.53;;;;;18.30;100354.00;;;;10479854;28;20213;-79
2022/04/12 08:16:44;;;;;;;3.75;2.70;;;;;18.80;100354.00;;;;10531437;28;20165;-79
2022/04/12 08:21:46;;;;;;;4.07;2.45;;;;;19.50;100346.00;;;;10540830;28;20719;-79
2022/04/12 08:26:48;;;;;;;6.18;2.58;;;;;19.60;100348.00;;;;10539264;28;20185;-79
2022/04/12 08:31:50;;;;;;;4.07;2.47;;;;;20.10;100347.00;;;;10572232;28;20223;-80
2022/04/12 08:36:52;;;;;;;3.53;2.10;;;;;20.40;100346.00;;;;10554858;28;20188;-79
2022/04/12 08:41:57;;;;;;;5.60;2.33;;;;;20.50;100346.00;;;;10572502;28;20249;-80
2022/04/12 08:47:03;;;;;;;4.53;2.10;;;;;20.90;100341.00;;;;10589041;28;20241;-79
2022/04/12 08:52:11;;;;;;;7.30;2.08;;;;;21.50;100336.00;;;;10572082;28;20212;-79
2022/04/12 08:57:13;;;;;;;4.38;2.05;;;;;21.80;100319.00;;;;10595426;27;20202;-80
2022/04/12 09:02:15;;;;;;;4.15;2.67;;;;;22.20;100314.00;;;;10630728;27;20245;-80
2022/04/12 09:07:23;;;;;;;3.05;1.92;;;;;22.60;100311.00;;;;10597165;27;20219;-80
2022/04/12 09:12:32;;;;;;;3.58;1.90;;;;;23.30;100313.00;;;;10595983;27;20191;-79
2022/04/12 09:17:36;;;;;;;5.07;2.22;;;;;23.90;100331.00;;;;10596577;27;20195;-80
2022/04/12 09:22:39;;;;;;;5.00;1.80;;;;;24.00;100334.00;;;;10594974;27;20204;-80
2022/04/12 09:27:49;;;;;;;8.20;3.03;;;;;23.50;100335.00;;;;10538184;28;20192;-80
2022/04/12 09:32:51;;;;;;;4.85;2.45;;;;;23.10;100330.00;;;;10587444;28;20200;-80
2022/04/12 09:37:53;;;;;;;4.03;2.47;;;;;23.30;100324.00;;;;10554192;28;20302;-79
2022/04/12 09:42:57;;;;;;;4.43;2.28;;;;;24.10;100315.00;;;;10586879;28;20249;-81
2022/04/12 09:48:02;;;;;;;6.93;2.33;;;;;24.30;100340.00;;;;10554101;28;20208;-80
2022/04/12 09:53:36;;;;;;;8.35;2.08;;;;;24.30;100351.00;;;;10566012;27;20196;-80
2022/04/12 09:58:39;;;;;;;8.98;1.95;;;;;24.40;100347.00;;;;10535314;28;20508;-80
2022/04/12 10:03:48;;;;;;;2.10;1.52;;;;;24.50;100317.00;;;;10519744;28;20212;-78
2022/04/12 10:08:53;;;;;;;3.30;1.77;;;;;24.50;100326.00;;;;10551914;28;20321;-79
2022/04/12 10:13:55;;;;;;;4.43;2.20;;;;;24.20;100343.00;;;;10551426;28;20196;-78
2022/04/12 10:19:00;;;;;;;5.32;1.75;;;;;24.20;100347.00;;;;10535465;28;20212;-81
2022/04/12 10:24:03;;;;;;;3.78;2.00;;;;;24.40;100331.00;;;;10522859;28;20201;-78
2022/04/12 10:29:06;;;;;;;4.15;1.90;;;;;24.40;100310.00;;;;10491110;28;20205;-77
2022/04/12 10:34:11;;;;;;;3.40;2.42;;;;;24.10;100299.00;;;;10492097;28;20193;-80
2022/04/12 10:39:14;;;;;;;3.92;2.10;;;;;24.40;100303.00;;;;10525040;28;20205;-78
2022/04/12 10:44:20;;;;;;;5.40;1.90;;;;;24.60;100302.00;;;;10506924;28;20571;-78
2022/04/12 10:49:22;;;;;;;4.50;1.92;;;;;24.50;100311.00;;;;10528334;28;20206;-79
2022/04/12 10:54:33;;;;;;;5.55;2.78;;;;;24.60;100307.00;;;;10560958;27;20192;-80
2022/04/12 10:59:39;;;;;;;3.75;2.17;;;;;24.70;100301.00;;;;10549529;28;20218;-80
2022/04/12 11:04:41;;;;;;;6.88;1.92;;;;;24.90;100296.00;;;;10565781;28;20199;-80
2022/04/12 11:10:12;;;;;;;3.90;1.77;;;;;25.40;100288.00;;;;10531768;28;20216;-78
2022/04/12 11:15:31;;;;;;;3.30;1.70;;;;;25.80;100285.00;;;;10548197;28;20643;-79
2022/04/12 11:20:33;;;;;;;4.97;2.00;;;;;25.70;100276.00;;;;10533470;28;20183;-80
2022/04/12 11:25:46;;;;;;;5.15;1.85;;;;;26.10;100279.00;;;;10608903;27;20187;-80
2022/04/12 11:30:56;;;;;;;5.75;2.13;;;;;26.40;100273.00;;;;10575440;27;20276;-79
2022/04/12 11:35:59;;;;;;;5.20;1.90;;;;;26.40;100280.00;;;;10609126;27;20183;-80
2022/04/12 11:41:01;;;;;;;4.68;1.50;;;;;25.90;100277.00;;;;10609278;27;20203;-79
2022/04/12 11:46:04;;;;;;;5.28;2.00;;;;;25.90;100282.00;;;;10573025;27;20230;-79
2022/04/12 11:51:06;;;;;;;5.60;1.67;;;;;26.50;100283.00;;;;10590863;27;20215;-79
2022/04/12 11:56:08;;;;;;;6.47;2.17;;;;;26.50;100276.00;;;;10591525;27;20192;-80
2022/04/12 12:01:11;;;;;;;6.70;2.05;;;;;26.20;100265.00;;;;10565092;28;20685;-79
2022/04/12 12:06:14;;;;;;;5.13;1.75;;;;;26.40;100262.00;;;;10548333;28;20279;-79
2022/04/12 12:11:16;;;;;;;7.45;1.85;;;;;26.80;100262.00;;;;10514643;28;20214;-79
2022/04/12 12:16:18;;;;;;;3.00;1.55;;;;;27.10;100264.00;;;;10531472;28;20188;-79
2022/04/12 12:21:20;;;;;;;5.10;2.03;;;;;27.30;100262.00;;;;10564942;28;20203;-79
2022/04/12 12:26:29;;;;;;;5.57;2.13;;;;;27.20;100254.00;;;;10564452;28;20225;-79
2022/04/12 12:31:43;;;;;;;4.38;1.80;;;;;27.20;100249.00;;;;10547587;28;20612;-80
2022/04/12 12:36:49;;;;;;;3.83;1.58;;;;;27.20;100243.00;;;;10532684;28;20203;-79
2022/04/12 12:41:56;;;;;;;7.32;2.22;;;;;27.20;100249.00;;;;10540367;28;20255;-79
2022/04/12 12:47:02;;;;;;;5.07;1.67;;;;;27.30;100257.00;;;;10525001;28;20563;-79
2022/04/12 12:52:08;;;;;;;4.50;1.60;;;;;27.70;100254.00;;;;10542969;28;20216;-79
2022/04/12 12:57:10;;;;;;;4.13;1.63;;;;;27.20;100257.00;;;;10568262;28;20230;-80
2022/04/12 13:02:13;;;;;;;3.53;1.58;;;;;26.70;100252.00;;;;10571788;28;20196;-79
2022/04/12 13:07:15;;;;;;;5.00;1.50;;;;;26.60;100253.00;;;;10538052;28;20226;-79
2022/04/12 13:12:17;;;;;;;3.88;1.52;;;;;27.20;100252.00;;;;10537003;28;20215;-79
2022/04/12 13:17:19;;;;;;;4.13;1.50;;;;;27.90;100244.00;;;;10536588;28;20203;-79
2022/04/12 13:22:21;;;;;;;4.65;1.65;;;;;28.30;100222.00;;;;10551764;27;20900;-79
2022/04/12 13:27:23;;;;;;;3.53;1.90;;;;;28.40;100225.00;;;;10578266;27;20253;-79
2022/04/12 13:32:26;;;;;;;4.43;1.40;;;;;29.20;100230.00;;;;10595827;27;20233;-79
2022/04/12 13:37:28;;;;;;;5.63;1.75;;;;;29.20;100237.00;;;;10596413;27;20212;-79
2022/04/12 13:42:30;;;;;;;2.33;1.50;;;;;29.50;100240.00;;;;10595779;27;20180;-79
2022/04/12 13:47:32;;;;;;;4.72;1.35;;;;;30.50;100235.00;;;;10588202;27;20666;-79
2022/04/12 13:52:34;;;;;;;4.50;1.40;;;;;31.40;100222.00;;;;10523167;28;20724;-80
2022/04/12 13:57:37;;;;;;;8.05;2.00;;;;;31.10;100234.00;;;;10569278;28;20669;-79
2022/04/12 14:02:39;;;;;;;4.15;1.90;;;;;31.60;100220.00;;;;10535269;28;20188;-79
2022/04/12 14:07:42;;;;;;;6.65;2.25;;;;;32.00;100235.00;;;;10534333;28;20295;-79
2022/04/12 14:12:44;;;;;;;4.22;1.65;;;;;32.00;100232.00;;;;10551181;28;20649;-79
2022/04/12 14:17:46;;;;;;;9.52;2.50;;;;;31.80;100220.00;;;;10550497;28;20195;-79
2022/04/12 14:23:09;;;;;;;5.50;1.75;;;;;31.50;100229.00;;;;10570272;28;20271;-79
2022/04/12 14:28:11;;;;;;;4.75;1.88;;;;;31.40;100218.00;;;;10566620;28;20188;-79
2022/04/12 14:33:13;;;;;;;6.75;2.20;;;;;32.80;100224.00;;;;10533063;28;20247;-79
2022/04/12 14:38:15;;;;;;;4.30;2.10;;;;;33.60;100227.00;;;;10565973;28;20212;-78
2022/04/12 14:43:16;;;;;;;4.65;2.00;;;;;34.10;100234.00;;;;10549403;28;20223;-79
2022/04/12 14:48:20;;;;;;;7.87;2.43;;;;;32.70;100250.00;;;;10549619;28;20214;-79
2022/04/12 14:53:23;;;;;;;5.25;2.25;;;;;32.60;100262.00;;;;10502595;28;20250;-79
2022/04/12 14:58:29;;;;;;;4.93;1.83;;;;;32.40;100255.00;;;;10533576;28;20257;-79
2022/04/12 15:03:32;;;;;;;7.65;1.88;;;;;29.90;100276.00;;;;10584334;28;20184;-79
2022/04/12 15:08:34;;;;;;;5.43;1.85;;;;;28.40;100283.00;;;;10532508;28;20749;-79
2022/04/12 15:13:36;;;;;;;5.25;1.73;;;;;27.50;100278.00;;;;10532785;28;20222;-79
2022/04/12 15:18:38;;;;;;;7.63;2.63;;;;;27.00;100276.00;;;;10583915;28;20218;-78
2022/04/12 15:23:40;;;;;;;4.60;1.70;;;;;26.50;100280.00;;;;10507020;28;20193;-80
2022/04/12 15:28:42;;;;;;;5.22;1.75;;;;;25.90;100284.00;;;;10546385;27;20461;-80
2022/04/12 15:33:44;;;;;;;5.53;1.58;;;;;25.50;100293.00;;;;10536517;27;20196;-80
2022/04/12 15:38:52;;;;;;;4.80;1.83;;;;;25.10;100295.00;;;;10562470;28;20204;-79
2022/04/12 15:43:54;;;;;;;4.45;1.73;;;;;24.70;100297.00;;;;10547647;28;20196;-80
2022/04/12 15:48:55;;;;;;;8.05;1.90;;;;;24.30;100294.00;;;;10546843;28;20212;-80
2022/04/12 15:53:57;;;;;;;5.88;1.92;;;;;24.00;100306.00;;;;10533298;28;20252;-80
2022/04/12 15:59:00;;;;;;;7.45;1.95;;;;;23.70;100314.00;;;;10528947;28;20275;-80
2022/04/12 16:04:02;;;;;;;5.72;1.83;;;;;23.40;100321.00;;;;10529950;28;20196;-79
2022/04/12 16:09:04;;;;;;;6.70;2.00;;;;;23.20;100325.00;;;;10529512;28;20593;-79
2022/04/12 16:14:06;;;;;;;8.40;1.65;;;;;23.00;100332.00;;;;10529169;28;20192;-81
2022/04/12 16:19:08;;;;;;;4.90;1.83;;;;;22.80;100335.00;;;;10546254;28;20290;-80
2022/04/12 16:24:10;;;;;;;7.28;1.60;;;;;22.60;100335.00;;;;10561954;28;20295;-79
2022/04/12 16:29:12;;;;;;;5.10;1.75;;;;;22.40;100352.00;;;;10514616;28;20718;-79
2022/04/12 16:34:14;;;;;;;5.03;1.70;;;;;22.10;100356.00;;;;10495020;28;20192;-80
2022/04/12 16:39:16;;;;;;;4.72;1.77;;;;;21.90;100351.00;;;;10528412;28;20678;-78
2022/04/12 16:44:18;;;;;;;6.25;1.55;;;;;21.70;100347.00;;;;10478583;28;20859;-79
2022/04/12 16:49:21;;;;;;;8.32;2.10;;;;;21.50;100369.00;;;;10542381;28;20245;-79
2022/04/12 16:54:23;;;;;;;3.28;1.52;;;;;21.30;100370.00;;;;10549755;27;20205;-79
2022/04/12 16:59:25;;;;;;;8.25;1.30;;;;;21.20;100381.00;;;;10532548;27;20210;-79
2022/04/12 17:04:26;;;;;;;11.05;2.45;;;;;21.00;100377.00;;;;10535859;28;20196;-78
2022/04/12 17:09:28;;;;;;;10.93;2.38;;;;;20.90;100382.00;;;;10527258;28;20258;-78
2022/04/12 17:14:30;;;;;;;7.30;2.28;;;;;20.70;100396.00;;;;10492332;28;20647;-78
2022/04/12 17:19:32;;;;;;;10.90;2.42;;;;;20.60;100402.00;;;;10532900;28;20279;-79
2022/04/12 17:24:34;;;;;;;8.48;2.40;;;;;20.40;100403.00;;;;10560282;27;20199;-79
2022/04/12 17:29:36;;;;;;;7.55;2.50;;;;;20.20;100412.00;;;;10546570;28;20641;-78
2022/04/12 17:34:39;;;;;;;10.15;2.78;;;;;20.00;100409.00;;;;10548639;28;20195;-77
2022/04/12 17:39:41;;;;;;;4.00;1.55;;;;;19.80;100409.00;;;;10540478;28;20213;-78
2022/04/12 17:44:43;;;;;;;5.13;1.52;;;;;19.60;100416.00;;;;10544413;28;20212;-78
2022/04/12 17:49:44;;;;;;;9.40;2.10;;;;;19.50;100424.00;;;;10538527;28;20200;-78
2022/04/12 17:54:46;;;;;;;7.00;1.77;;;;;19.30;100428.00;;;;10538186;28;20188;-78
2022/04/12 17:59:48;;;;;;;7.78;2.13;;;;;19.20;100428.00;;;;10544635;28;20177;-79
2022/04/12 18:04:55;;;;;;;6.00;1.80;;;;;19.00;100433.00;;;;10545669;28;20192;-78
2022/04/12 18:09:57;;;;;;;8.45;2.22;;;;;18.70;100435.00;;;;10562855;28;20208;-77
2022/04/12 18:14:59;;;;;;;5.43;1.88;;;;;18.60;100437.00;;;;10547003;28;20195;-78
2022/04/12 18:20:02;;;;;;;4.38;1.60;;;;;18.40;100436.00;;;;10527204;27;20176;-78
2022/04/12 18:25:05;;;;;;;8.73;1.77;;;;;18.20;100432.00;;;;10559563;28;20235;-77
2022/04/12 18:30:08;;;;;;;13.63;2.13;;;;;18.00;100441.00;;;;10527521;27;20682;-78
2022/04/12 18:35:10;;;;;;;6.90;2.30;;;;;17.90;100448.00;;;;10576309;28;20582;-77
2022/04/12 18:40:15;;;;;;;10.07;2.00;;;;;17.70;100447.00;;;;10557320;28;20295;-77
2022/04/12 18:45:17;;;;;;;5.03;1.90;;;;;17.50;100447.00;;;;10543952;28;20199;-78
2022/04/12 18:50:20;;;;;;;6.55;2.13;;;;;17.40;100445.00;;;;10556807;27;20215;-77
2022/04/12 18:55:23;;;;;;;6.95;2.47;;;;;17.30;100452.00;;;;10509209;28;20192;-77
2022/04/12 19:00:25;;;;;;;5.90;2.20;;;;;17.10;100467.00;;;;10542342;28;20201;-78
2022/04/12 19:05:27;;;;;;;9.60;2.20;;;;;17.10;100467.00;;;;10523955;28;20196;-78
2022/04/12 19:10:29;;;;;;;9.57;2.47;;;;;17.00;100475.00;;;;10558671;28;20742;-78
2022/04/12 19:15:31;;;;;;;7.72;2.38;;;;;16.90;100477.00;;;;10559123;28;20555;-78
2022/04/12 19:20:33;;;;;;;8.67;2.90;;;;;16.80;100478.00;;;;10516150;27;20185;-78
2022/04/12 19:25:36;;;;;;;6.30;2.60;;;;;16.70;100485.00;;;;10556930;28;20199;-77
2022/04/12 19:30:41;;;;;;;5.07;2.83;;;;;16.60;100497.00;;;;10493952;28;20242;-77
2022/04/12 19:35:43;;;;;;;12.80;3.43;;;;;16.50;100492.00;;;;10540322;28;20196;-78
2022/04/12 19:40:45;;;;;;;10.60;3.17;;;;;16.40;100512.00;;;;10511463;28;20736;-78
2022/04/12 19:45:49;;;;;;;8.57;3.10;;;;;16.20;100499.00;;;;10523675;28;20257;-77
2022/04/12 19:50:51;;;;;;;6.10;2.80;;;;;16.20;100504.00;;;;10524936;28;20624;-78
2022/04/12 19:55:53;;;;;;;8.17;2.93;;;;;16.10;100506.00;;;;10523208;28;20196;-77
2022/04/12 20:00:56;;;;;;;6.50;2.80;;;;;16.00;100505.00;;;;10557212;28;20271;-78
2022/04/12 20:05:58;;;;;;;10.37;3.37;;;;;16.00;100521.00;;;;10539048;28;20196;-77
2022/04/12 20:11:01;;;;;;;8.07;2.77;;;;;16.00;100523.00;;;;10523200;28;20731;-78
2022/04/12 20:16:03;;;;;;;10.27;3.03;;;;;15.90;100525.00;;;;10555515;28;20591;-78
2022/04/12 20:21:06;;;;;;;15.13;3.03;;;;;15.80;100525.00;;;;10542707;28;20180;-78
2022/04/12 20:26:10;;;;;;;8.30;3.03;;;;;15.80;100530.00;;;;10576052;28;20188;-78
2022/04/12 20:31:13;;;;;;;5.43;2.57;;;;;15.80;100521.00;;;;10518658;28;20247;-77
2022/04/12 20:36:15;;;;;;;8.10;2.90;;;;;15.80;100527.00;;;;10538808;28;20188;-78
2022/04/12 20:41:17;;;;;;;10.00;3.23;;;;;15.90;100525.00;;;;10542160;28;20208;-78
2022/04/12 20:46:20;;;;;;;5.87;2.63;;;;;15.70;100539.00;;;;10528508;28;20207;-78
2022/04/12 20:51:22;;;;;;;6.43;2.63;;;;;15.60;100536.00;;;;10537405;28;20246;-78
2022/04/12 20:56:24;;;;;;;13.10;2.93;;;;;15.50;100548.00;;;;10522455;28;20192;-77
2022/04/12 21:01:26;;;;;;;7.73;2.37;;;;;15.50;100550.00;;;;10520021;28;20193;-77
2022/04/12 21:06:31;;;;;;;6.53;2.70;;;;;15.50;100556.00;;;;10534538;28;20294;-77
2022/04/12 21:11:39;;;;;;;5.93;2.27;;;;;15.60;100555.00;;;;10501428;28;20254;-78
2022/04/12 21:16:52;;;;;;;5.23;2.70;;;;;15.60;100565.00;;;;10525186;28;20262;-78
2022/04/12 21:22:04;;;;;;;6.67;2.67;;;;;15.60;100567.00;;;;10536842;28;20184;-77
2022/04/12 21:27:10;;;;;;;7.23;3.33;;;;;15.60;100565.00;;;;10513701;28;20191;-78
2022/04/12 21:32:13;;;;;;;6.63;2.67;;;;;15.60;100566.00;;;;10515525;28;20212;-77
2022/04/12 21:37:15;;;;;;;5.33;2.50;;;;;15.40;100575.00;;;;10530871;28;20215;-77
2022/04/12 21:42:17;;;;;;;7.30;3.23;;;;;15.30;100583.00;;;;10530314;28;20187;-77
2022/04/12 21:47:19;;;;;;;7.93;2.90;;;;;15.20;100583.00;;;;10529449;28;20219;-77
2022/04/12 21:52:21;;;;;;;9.03;3.07;;;;;15.10;100592.00;;;;10530390;27;20223;-77
2022/04/12 21:57:23;;;;;;;6.10;2.83;;;;;15.00;100578.00;;;;10540362;28;20192;-76
2022/04/12 22:02:25;;;;;;;9.23;3.43;;;;;15.00;100587.00;;;;10529711;28;20668;-77
2022/04/12 22:07:27;;;;;;;6.33;2.80;;;;;15.00;100591.00;;;;10547007;28;20196;-76
2022/04/12 22:12:29;;;;;;;8.73;3.77;;;;;15.00;100596.00;;;;10525521;28;20212;-77
2022/04/12 22:17:31;;;;;;;13.73;4.37;;;;;14.90;100606.00;;;;10547022;27;20227;-77
2022/04/12 22:22:33;;;;;;;10.10;3.57;;;;;14.80;100608.00;;;;10542667;28;20666;-76
2022/04/12 22:27:36;;;;;;;7.80;3.27;;;;;14.70;100614.00;;;;10525708;28;20189;-76
2022/04/12 22:32:38;;;;;;;9.33;3.70;;;;;14.50;100621.00;;;;10525897;28;20735;-77
2022/04/12 22:37:41;;;;;;;11.40;3.80;;;;;14.40;100628.00;;;;10512724;28;20215;-76
2022/04/12 22:42:43;;;;;;;13.90;3.70;;;;;14.30;100625.00;;;;10526133;28;20200;-77
2022/04/12 22:47:47;;;;;;;9.10;3.40;;;;;14.30;100623.00;;;;10561985;28;20196;-76
2022/04/12 22:52:49;;;;;;;12.73;3.63;;;;;14.20;100642.00;;;;10562880;28;20270;-77
2022/04/12 22:57:53;;;;;;;9.07;3.83;;;;;14.10;100637.00;;;;10529395;28;20237;-76
2022/04/12 23:02:56;;;;;;;10.03;4.03;;;;;14.00;100636.00;;;;10526425;28;20196;-77
2022/04/12 23:07:58;;;;;;;9.00;3.13;;;;;13.90;100639.00;;;;10524388;28;20677;-76
2022/04/12 23:13:00;;;;;;;11.80;4.00;;;;;13.90;100658.00;;;;10545945;28;20216;-77
2022/04/12 23:18:05;;;;;;;12.67;3.77;;;;;13.80;100654.00;;;;10545949;28;20196;-77
2022/04/12 23:23:07;;;;;;;9.37;4.00;;;;;13.60;100660.00;;;;10554071;28;20593;-77
2022/04/12 23:28:13;;;;;;;14.33;4.40;;;;;13.50;100672.00;;;;10545015;28;20192;-77
2022/04/12 23:33:15;;;;;;;8.50;3.97;;;;;13.50;100684.00;;;;10529786;28;20244;-77
2022/04/12 23:38:17;;;;;;;14.07;5.23;;;;;13.40;100694.00;;;;10517767;28;20255;-77
2022/04/12 23:43:24;;;;;;;8.87;3.70;;;;;13.40;100690.00;;;;10503301;28;20195;-77
2022/04/12 23:48:27;;;;;;;9.30;3.93;;;;;13.60;100701.00;;;;10519563;28;20211;-77
2022/04/12 23:53:29;;;;;;;10.77;4.70;;;;;13.70;100703.00;;;;10516419;27;20244;-77
2022/04/12 23:58:32;;;;;;;11.60;5.10;;;;;13.80;100713.00;;;;10543688;28;20188;-76
